sensor_id;sensor_type;location;lat;lon;timestamp;temperature;humidity
7646;DHT22;3864;48.180;14.178;2023-09-07T00:01:57;14.50;99.90
7646;DHT22;3864;48.180;14.178;2023-09-07T00:04:25;14.50;99.90
7646;DHT22;3864;48.180;14.178;2023-09-07T00:06:52;14.50;99.90
7646;DHT22;3864;48.180;14.178;2023-09-07T00:09:19;14.50;99.90
7646;DHT22;3864;48.180;14.178;2023-09-07T00:11:47;14.40;99.90
7646;DHT22;3864;48.180;14.178;2023-09-07T00:14:15;14.40;99.90
7646;DHT22;3864;48.180;14.178;2023-09-07T00:16:42;14.40;99.90
7646;DHT22;3864;48.180;14.178;2023-09-07T00:19:09;14.40;99.90
7646;DHT22;3864;48.180;14.178;2023-09-07T00:21:37;14.40;99.90
7646;DHT22;3864;48.180;14.178;2023-09-07T00:24:05;14.40;99.90
7646;DHT22;3864;48.180;14.178;2023-09-07T00:26:32;14.30;99.90
7646;DHT22;3864;48.180;14.178;2023-09-07T00:29:00;14.30;99.90
7646;DHT22;3864;48.180;14.178;2023-09-07T00:31:27;14.20;99.90
7646;DHT22;3864;48.180;14.178;2023-09-07T00:33:54;14.10;99.90
7646;DHT22;3864;48.180;14.178;2023-09-07T00:36:21;14.00;99.90
7646;DHT22;3864;48.180;14.178;2023-09-07T00:38:49;13.90;99.90
7646;DHT22;3864;48.180;14.178;2023-09-07T00:41:16;13.90;99.90
7646;DHT22;3864;48.180;14.178;2023-09-07T00:43:43;13.80;99.90
7646;DHT22;3864;48.180;14.178;2023-09-07T00:46:10;13.80;99.90
7646;DHT22;3864;48.180;14.178;2023-09-07T00:48:38;13.80;99.90
7646;DHT22;3864;48.180;14.178;2023-09-07T00:51:05;13.80;99.90
7646;DHT22;3864;48.180;14.178;2023-09-07T00:53:33;13.80;99.90
7646;DHT22;3864;48.180;14.178;2023-09-07T00:56:03;13.80;99.90
7646;DHT22;3864;48.180;14.178;2023-09-07T00:58:30;13.80;99.90
7646;DHT22;3864;48.180;14.178;2023-09-07T01:00:59;13.80;99.90
7646;DHT22;3864;48.180;14.178;2023-09-07T01:03:26;13.80;99.90
7646;DHT22;3864;48.180;14.178;2023-09-07T01:05:58;13.90;99.90
7646;DHT22;3864;48.180;14.178;2023-09-07T01:08:32;13.90;99.90
7646;DHT22;3864;48.180;14.178;2023-09-07T01:11:13;13.90;99.90
7646;DHT22;3864;48.180;14.178;2023-09-07T01:13:40;13.90;99.90
7646;DHT22;3864;48.180;14.178;2023-09-07T01:16:08;13.80;99.90
7646;DHT22;3864;48.180;14.178;2023-09-07T01:18:37;13.80;99.90
7646;DHT22;3864;48.180;14.178;2023-09-07T01:21:05;13.80;99.90
7646;DHT22;3864;48.180;14.178;2023-09-07T01:23:36;13.80;99.90
7646;DHT22;3864;48.180;14.178;2023-09-07T01:26:05;13.70;99.90
7646;DHT22;3864;48.180;14.178;2023-09-07T01:28:33;13.70;99.90
7646;DHT22;3864;48.180;14.178;2023-09-07T01:31:00;13.70;99.90
7646;DHT22;3864;48.180;14.178;2023-09-07T01:33:28;13.70;99.90
7646;DHT22;3864;48.180;14.178;2023-09-07T01:35:55;13.70;99.90
7646;DHT22;3864;48.180;14.178;2023-09-07T01:38:22;13.70;99.90
7646;DHT22;3864;48.180;14.178;2023-09-07T01:40:51;13.60;99.90
7646;DHT22;3864;48.180;14.178;2023-09-07T01:43:19;13.60;99.90
7646;DHT22;3864;48.180;14.178;2023-09-07T01:45:46;13.60;99.90
7646;DHT22;3864;48.180;14.178;2023-09-07T01:48:14;13.60;99.90
7646;DHT22;3864;48.180;14.178;2023-09-07T01:50:41;13.60;99.90
7646;DHT22;3864;48.180;14.178;2023-09-07T01:53:08;13.60;99.90
7646;DHT22;3864;48.180;14.178;2023-09-07T01:55:35;13.60;99.90
7646;DHT22;3864;48.180;14.178;2023-09-07T01:58:04;13.60;99.90
7646;DHT22;3864;48.180;14.178;2023-09-07T02:00:36;13.50;99.90
7646;DHT22;3864;48.180;14.178;2023-09-07T02:03:04;13.50;99.90
7646;DHT22;3864;48.180;14.178;2023-09-07T02:05:31;13.50;99.90
7646;DHT22;3864;48.180;14.178;2023-09-07T02:07:58;13.50;99.90
7646;DHT22;3864;48.180;14.178;2023-09-07T02:10:25;13.40;99.90
7646;DHT22;3864;48.180;14.178;2023-09-07T02:12:52;13.40;99.90
7646;DHT22;3864;48.180;14.178;2023-09-07T02:15:21;13.30;99.90
7646;DHT22;3864;48.180;14.178;2023-09-07T02:17:48;13.30;99.90
7646;DHT22;3864;48.180;14.178;2023-09-07T02:20:15;13.30;99.90
7646;DHT22;3864;48.180;14.178;2023-09-07T02:22:44;13.30;99.90
7646;DHT22;3864;48.180;14.178;2023-09-07T02:25:11;13.30;99.90
7646;DHT22;3864;48.180;14.178;2023-09-07T02:27:38;13.30;99.90
7646;DHT22;3864;48.180;14.178;2023-09-07T02:30:06;13.30;99.90
7646;DHT22;3864;48.180;14.178;2023-09-07T02:32:35;13.30;99.90
7646;DHT22;3864;48.180;14.178;2023-09-07T02:35:03;13.30;99.90
7646;DHT22;3864;48.180;14.178;2023-09-07T02:37:30;13.30;99.90
7646;DHT22;3864;48.180;14.178;2023-09-07T02:39:58;13.20;99.90
7646;DHT22;3864;48.180;14.178;2023-09-07T02:42:26;13.20;99.90
7646;DHT22;3864;48.180;14.178;2023-09-07T02:44:53;13.10;99.90
7646;DHT22;3864;48.180;14.178;2023-09-07T02:47:20;13.10;99.90
7646;DHT22;3864;48.180;14.178;2023-09-07T02:49:49;13.00;99.90
7646;DHT22;3864;48.180;14.178;2023-09-07T02:52:22;13.00;99.90
7646;DHT22;3864;48.180;14.178;2023-09-07T02:54:49;13.00;99.90
7646;DHT22;3864;48.180;14.178;2023-09-07T02:57:16;12.90;99.90
7646;DHT22;3864;48.180;14.178;2023-09-07T02:59:43;13.00;99.90
7646;DHT22;3864;48.180;14.178;2023-09-07T03:02:11;12.90;99.90
7646;DHT22;3864;48.180;14.178;2023-09-07T03:04:38;12.90;99.90
7646;DHT22;3864;48.180;14.178;2023-09-07T03:07:06;12.80;99.90
7646;DHT22;3864;48.180;14.178;2023-09-07T03:09:34;12.80;99.90
7646;DHT22;3864;48.180;14.178;2023-09-07T03:12:02;12.70;99.90
7646;DHT22;3864;48.180;14.178;2023-09-07T03:14:29;12.70;99.90
7646;DHT22;3864;48.180;14.178;2023-09-07T03:16:56;12.70;99.90
7646;DHT22;3864;48.180;14.178;2023-09-07T03:19:23;12.60;99.90
7646;DHT22;3864;48.180;14.178;2023-09-07T03:21:50;12.60;99.90
7646;DHT22;3864;48.180;14.178;2023-09-07T03:24:19;12.60;99.90
7646;DHT22;3864;48.180;14.178;2023-09-07T03:26:46;12.60;99.90
7646;DHT22;3864;48.180;14.178;2023-09-07T03:29:13;12.60;99.90
7646;DHT22;3864;48.180;14.178;2023-09-07T03:31:40;12.60;99.90
7646;DHT22;3864;48.180;14.178;2023-09-07T03:34:07;12.60;99.90
7646;DHT22;3864;48.180;14.178;2023-09-07T03:36:34;12.60;99.90
7646;DHT22;3864;48.180;14.178;2023-09-07T03:39:01;12.60;99.90
7646;DHT22;3864;48.180;14.178;2023-09-07T03:41:30;12.60;99.90
7646;DHT22;3864;48.180;14.178;2023-09-07T03:43:57;12.50;99.90
7646;DHT22;3864;48.180;14.178;2023-09-07T03:46:24;12.60;99.90
7646;DHT22;3864;48.180;14.178;2023-09-07T03:48:51;12.60;99.90
7646;DHT22;3864;48.180;14.178;2023-09-07T03:51:19;12.60;99.90
7646;DHT22;3864;48.180;14.178;2023-09-07T03:53:46;12.50;99.90
7646;DHT22;3864;48.180;14.178;2023-09-07T03:56:13;12.50;99.90
7646;DHT22;3864;48.180;14.178;2023-09-07T03:58:42;12.40;99.90
7646;DHT22;3864;48.180;14.178;2023-09-07T04:01:09;12.50;99.90
7646;DHT22;3864;48.180;14.178;2023-09-07T04:03:36;12.40;99.90
7646;DHT22;3864;48.180;14.178;2023-09-07T04:06:02;12.40;99.90
7646;DHT22;3864;48.180;14.178;2023-09-07T04:08:30;12.30;99.90
7646;DHT22;3864;48.180;14.178;2023-09-07T04:10:57;12.30;99.90
7646;DHT22;3864;48.180;14.178;2023-09-07T04:13:24;12.30;99.90
7646;DHT22;3864;48.180;14.178;2023-09-07T04:15:52;12.20;99.90
7646;DHT22;3864;48.180;14.178;2023-09-07T04:18:20;12.30;99.90
7646;DHT22;3864;48.180;14.178;2023-09-07T04:20:47;12.30;99.90
7646;DHT22;3864;48.180;14.178;2023-09-07T04:23:14;12.30;99.90
7646;DHT22;3864;48.180;14.178;2023-09-07T04:25:41;12.20;99.90
7646;DHT22;3864;48.180;14.178;2023-09-07T04:28:08;12.20;99.90
7646;DHT22;3864;48.180;14.178;2023-09-07T04:30:37;12.20;99.90
7646;DHT22;3864;48.180;14.178;2023-09-07T04:33:06;12.20;99.90
7646;DHT22;3864;48.180;14.178;2023-09-07T04:35:33;12.20;99.90
7646;DHT22;3864;48.180;14.178;2023-09-07T04:38:00;12.20;99.90
7646;DHT22;3864;48.180;14.178;2023-09-07T04:40:27;12.20;99.90
7646;DHT22;3864;48.180;14.178;2023-09-07T04:42:54;12.30;99.90
7646;DHT22;3864;48.180;14.178;2023-09-07T04:45:21;12.30;99.90
7646;DHT22;3864;48.180;14.178;2023-09-07T04:47:49;12.30;99.90
7646;DHT22;3864;48.180;14.178;2023-09-07T04:50:19;12.30;99.90
7646;DHT22;3864;48.180;14.178;2023-09-07T04:52:46;12.40;99.90
7646;DHT22;3864;48.180;14.178;2023-09-07T04:55:14;12.40;99.90
7646;DHT22;3864;48.180;14.178;2023-09-07T04:57:41;12.50;99.90
7646;DHT22;3864;48.180;14.178;2023-09-07T05:00:08;12.40;99.90
7646;DHT22;3864;48.180;14.178;2023-09-07T05:02:35;12.50;99.90
7646;DHT22;3864;48.180;14.178;2023-09-07T05:05:06;12.50;99.90
7646;DHT22;3864;48.180;14.178;2023-09-07T05:07:35;12.50;99.90
7646;DHT22;3864;48.180;14.178;2023-09-07T05:10:02;12.50;99.90
7646;DHT22;3864;48.180;14.178;2023-09-07T05:12:29;12.50;99.90
7646;DHT22;3864;48.180;14.178;2023-09-07T05:14:57;12.60;99.90
7646;DHT22;3864;48.180;14.178;2023-09-07T05:17:25;12.50;99.90
7646;DHT22;3864;48.180;14.178;2023-09-07T05:19:52;12.60;99.90
7646;DHT22;3864;48.180;14.178;2023-09-07T05:22:19;12.60;99.90
7646;DHT22;3864;48.180;14.178;2023-09-07T05:24:50;12.60;99.90
7646;DHT22;3864;48.180;14.178;2023-09-07T05:27:17;12.60;99.90
7646;DHT22;3864;48.180;14.178;2023-09-07T05:29:44;12.70;99.90
7646;DHT22;3864;48.180;14.178;2023-09-07T05:32:11;12.70;99.90
7646;DHT22;3864;48.180;14.178;2023-09-07T05:34:38;12.70;99.90
7646;DHT22;3864;48.180;14.178;2023-09-07T05:37:05;12.80;99.90
7646;DHT22;3864;48.180;14.178;2023-09-07T05:39:33;12.80;99.90
7646;DHT22;3864;48.180;14.178;2023-09-07T05:42:02;12.90;99.90
7646;DHT22;3864;48.180;14.178;2023-09-07T05:44:29;12.90;99.90
7646;DHT22;3864;48.180;14.178;2023-09-07T05:46:56;12.90;99.90
7646;DHT22;3864;48.180;14.178;2023-09-07T05:49:24;13.00;99.90
7646;DHT22;3864;48.180;14.178;2023-09-07T05:51:51;13.00;99.90
7646;DHT22;3864;48.180;14.178;2023-09-07T05:54:18;13.00;99.90
7646;DHT22;3864;48.180;14.178;2023-09-07T05:56:44;13.00;99.90
7646;DHT22;3864;48.180;14.178;2023-09-07T05:59:12;13.10;99.90
7646;DHT22;3864;48.180;14.178;2023-09-07T06:01:40;13.10;99.90
7646;DHT22;3864;48.180;14.178;2023-09-07T06:04:07;13.20;99.90
7646;DHT22;3864;48.180;14.178;2023-09-07T06:06:34;13.20;99.90
7646;DHT22;3864;48.180;14.178;2023-09-07T06:09:01;13.20;99.90
7646;DHT22;3864;48.180;14.178;2023-09-07T06:11:29;13.30;99.90
7646;DHT22;3864;48.180;14.178;2023-09-07T06:13:57;13.30;99.90
7646;DHT22;3864;48.180;14.178;2023-09-07T06:16:26;13.40;99.90
7646;DHT22;3864;48.180;14.178;2023-09-07T06:18:53;13.40;99.90
7646;DHT22;3864;48.180;14.178;2023-09-07T06:21:20;13.50;99.90
7646;DHT22;3864;48.180;14.178;2023-09-07T06:23:47;13.50;99.90
7646;DHT22;3864;48.180;14.178;2023-09-07T06:26:15;13.60;99.90
7646;DHT22;3864;48.180;14.178;2023-09-07T06:28:43;13.60;99.90
7646;DHT22;3864;48.180;14.178;2023-09-07T06:31:10;13.60;99.90
7646;DHT22;3864;48.180;14.178;2023-09-07T06:33:39;13.70;99.90
7646;DHT22;3864;48.180;14.178;2023-09-07T06:36:06;13.80;99.90
7646;DHT22;3864;48.180;14.178;2023-09-07T06:38:32;13.80;99.90
7646;DHT22;3864;48.180;14.178;2023-09-07T06:40:59;13.90;99.90
7646;DHT22;3864;48.180;14.178;2023-09-07T06:43:26;14.00;99.90
7646;DHT22;3864;48.180;14.178;2023-09-07T06:45:54;14.10;99.90
7646;DHT22;3864;48.180;14.178;2023-09-07T06:48:21;14.30;99.90
7646;DHT22;3864;48.180;14.178;2023-09-07T06:50:49;14.40;99.90
7646;DHT22;3864;48.180;14.178;2023-09-07T06:53:16;14.50;99.90
7646;DHT22;3864;48.180;14.178;2023-09-07T06:55:43;14.60;99.90
7646;DHT22;3864;48.180;14.178;2023-09-07T06:58:11;14.70;99.90
7646;DHT22;3864;48.180;14.178;2023-09-07T07:00:38;14.90;99.90
7646;DHT22;3864;48.180;14.178;2023-09-07T07:03:18;15.00;99.90
7646;DHT22;3864;48.180;14.178;2023-09-07T07:05:45;15.10;99.90
7646;DHT22;3864;48.180;14.178;2023-09-07T07:08:14;15.10;99.90
7646;DHT22;3864;48.180;14.178;2023-09-07T07:10:42;15.20;99.90
7646;DHT22;3864;48.180;14.178;2023-09-07T07:13:09;15.50;99.90
7646;DHT22;3864;48.180;14.178;2023-09-07T07:15:36;15.70;99.90
7646;DHT22;3864;48.180;14.178;2023-09-07T07:18:03;16.00;99.90
7646;DHT22;3864;48.180;14.178;2023-09-07T07:20:34;15.90;99.90
7646;DHT22;3864;48.180;14.178;2023-09-07T07:23:00;15.90;99.90
7646;DHT22;3864;48.180;14.178;2023-09-07T07:25:29;15.90;99.90
7646;DHT22;3864;48.180;14.178;2023-09-07T07:27:58;16.00;99.90
7646;DHT22;3864;48.180;14.178;2023-09-07T07:30:27;16.00;99.90
7646;DHT22;3864;48.180;14.178;2023-09-07T07:32:54;16.10;99.90
7646;DHT22;3864;48.180;14.178;2023-09-07T07:35:22;16.20;99.90
7646;DHT22;3864;48.180;14.178;2023-09-07T07:37:50;16.40;99.90
7646;DHT22;3864;48.180;14.178;2023-09-07T07:40:17;16.60;99.90
7646;DHT22;3864;48.180;14.178;2023-09-07T07:42:46;16.70;99.90
7646;DHT22;3864;48.180;14.178;2023-09-07T07:45:14;16.90;99.90
7646;DHT22;3864;48.180;14.178;2023-09-07T07:47:45;17.10;99.90
7646;DHT22;3864;48.180;14.178;2023-09-07T07:50:12;17.50;99.90
7646;DHT22;3864;48.180;14.178;2023-09-07T07:52:39;17.80;99.90
7646;DHT22;3864;48.180;14.178;2023-09-07T07:55:06;18.10;99.90
7646;DHT22;3864;48.180;14.178;2023-09-07T07:57:33;18.40;99.90
7646;DHT22;3864;48.180;14.178;2023-09-07T08:00:03;18.70;99.90
7646;DHT22;3864;48.180;14.178;2023-09-07T08:02:30;18.90;99.90
7646;DHT22;3864;48.180;14.178;2023-09-07T08:04:58;19.00;99.90
7646;DHT22;3864;48.180;14.178;2023-09-07T08:07:26;19.10;99.90
7646;DHT22;3864;48.180;14.178;2023-09-07T08:09:53;19.10;99.90
7646;DHT22;3864;48.180;14.178;2023-09-07T08:12:20;19.50;99.90
7646;DHT22;3864;48.180;14.178;2023-09-07T08:14:47;19.60;99.90
7646;DHT22;3864;48.180;14.178;2023-09-07T08:17:16;19.70;99.90
7646;DHT22;3864;48.180;14.178;2023-09-07T08:19:43;19.90;99.90
7646;DHT22;3864;48.180;14.178;2023-09-07T08:22:13;19.90;99.90
7646;DHT22;3864;48.180;14.178;2023-09-07T08:24:42;20.00;99.90
7646;DHT22;3864;48.180;14.178;2023-09-07T08:27:10;20.10;99.90
7646;DHT22;3864;48.180;14.178;2023-09-07T08:29:43;20.30;99.90
7646;DHT22;3864;48.180;14.178;2023-09-07T08:32:12;20.50;99.90
7646;DHT22;3864;48.180;14.178;2023-09-07T08:34:42;20.80;99.90
7646;DHT22;3864;48.180;14.178;2023-09-07T08:37:10;21.10;99.90
7646;DHT22;3864;48.180;14.178;2023-09-07T08:39:37;21.30;99.90
7646;DHT22;3864;48.180;14.178;2023-09-07T08:42:05;21.70;99.90
7646;DHT22;3864;48.180;14.178;2023-09-07T08:44:34;22.00;99.90
7646;DHT22;3864;48.180;14.178;2023-09-07T08:47:05;22.60;99.90
7646;DHT22;3864;48.180;14.178;2023-09-07T08:49:32;22.90;99.90
7646;DHT22;3864;48.180;14.178;2023-09-07T08:52:02;23.00;99.90
7646;DHT22;3864;48.180;14.178;2023-09-07T08:54:30;23.20;99.90
7646;DHT22;3864;48.180;14.178;2023-09-07T08:56:58;23.50;99.90
7646;DHT22;3864;48.180;14.178;2023-09-07T08:59:26;23.70;99.90
7646;DHT22;3864;48.180;14.178;2023-09-07T09:01:56;24.00;99.90
7646;DHT22;3864;48.180;14.178;2023-09-07T09:04:24;24.20;99.90
7646;DHT22;3864;48.180;14.178;2023-09-07T09:06:51;24.40;99.90
7646;DHT22;3864;48.180;14.178;2023-09-07T09:09:25;24.50;99.90
7646;DHT22;3864;48.180;14.178;2023-09-07T09:11:52;24.70;99.90
7646;DHT22;3864;48.180;14.178;2023-09-07T09:14:20;25.00;99.90
7646;DHT22;3864;48.180;14.178;2023-09-07T09:16:49;24.90;99.90
7646;DHT22;3864;48.180;14.178;2023-09-07T09:19:17;24.80;99.90
7646;DHT22;3864;48.180;14.178;2023-09-07T09:21:44;24.90;99.90
7646;DHT22;3864;48.180;14.178;2023-09-07T09:24:12;24.80;99.90
7646;DHT22;3864;48.180;14.178;2023-09-07T09:26:41;24.60;99.90
7646;DHT22;3864;48.180;14.178;2023-09-07T09:29:09;24.50;99.90
7646;DHT22;3864;48.180;14.178;2023-09-07T09:31:36;24.10;99.90
7646;DHT22;3864;48.180;14.178;2023-09-07T09:34:04;24.20;99.90
7646;DHT22;3864;48.180;14.178;2023-09-07T09:36:35;24.20;99.90
7646;DHT22;3864;48.180;14.178;2023-09-07T09:39:03;24.10;99.90
7646;DHT22;3864;48.180;14.178;2023-09-07T09:41:32;23.90;99.90
7646;DHT22;3864;48.180;14.178;2023-09-07T09:44:03;23.90;99.90
7646;DHT22;3864;48.180;14.178;2023-09-07T09:46:32;24.00;99.90
7646;DHT22;3864;48.180;14.178;2023-09-07T09:48:59;24.10;99.90
7646;DHT22;3864;48.180;14.178;2023-09-07T09:51:27;24.30;99.90
7646;DHT22;3864;48.180;14.178;2023-09-07T09:53:55;24.70;99.90
7646;DHT22;3864;48.180;14.178;2023-09-07T09:56:22;24.90;99.90
7646;DHT22;3864;48.180;14.178;2023-09-07T09:58:51;25.10;99.90
7646;DHT22;3864;48.180;14.178;2023-09-07T10:01:20;25.30;99.90
7646;DHT22;3864;48.180;14.178;2023-09-07T10:03:49;25.60;99.90
7646;DHT22;3864;48.180;14.178;2023-09-07T10:06:23;25.80;99.90
7646;DHT22;3864;48.180;14.178;2023-09-07T10:08:54;25.80;99.90
7646;DHT22;3864;48.180;14.178;2023-09-07T10:11:27;26.00;99.90
7646;DHT22;3864;48.180;14.178;2023-09-07T10:13:59;26.10;99.90
7646;DHT22;3864;48.180;14.178;2023-09-07T10:16:27;26.40;99.90
7646;DHT22;3864;48.180;14.178;2023-09-07T10:18:54;26.80;99.90
7646;DHT22;3864;48.180;14.178;2023-09-07T10:21:25;27.00;99.90
7646;DHT22;3864;48.180;14.178;2023-09-07T10:23:52;27.20;99.90
7646;DHT22;3864;48.180;14.178;2023-09-07T10:26:21;27.30;99.90
7646;DHT22;3864;48.180;14.178;2023-09-07T10:28:59;27.50;99.90
7646;DHT22;3864;48.180;14.178;2023-09-07T10:31:31;27.70;99.90
7646;DHT22;3864;48.180;14.178;2023-09-07T10:34:08;27.80;99.90
7646;DHT22;3864;48.180;14.178;2023-09-07T10:36:36;27.80;99.90
7646;DHT22;3864;48.180;14.178;2023-09-07T10:39:04;27.90;99.90
7646;DHT22;3864;48.180;14.178;2023-09-07T10:41:41;27.70;99.90
7646;DHT22;3864;48.180;14.178;2023-09-07T10:44:09;27.80;99.90
7646;DHT22;3864;48.180;14.178;2023-09-07T10:46:39;27.90;99.90
7646;DHT22;3864;48.180;14.178;2023-09-07T10:49:11;28.00;99.90
7646;DHT22;3864;48.180;14.178;2023-09-07T10:51:42;28.10;99.90
7646;DHT22;3864;48.180;14.178;2023-09-07T10:54:14;28.10;99.90
7646;DHT22;3864;48.180;14.178;2023-09-07T10:56:44;28.30;99.90
7646;DHT22;3864;48.180;14.178;2023-09-07T10:59:13;28.40;99.90
7646;DHT22;3864;48.180;14.178;2023-09-07T11:01:43;28.40;99.90
7646;DHT22;3864;48.180;14.178;2023-09-07T11:04:10;28.50;99.90
7646;DHT22;3864;48.180;14.178;2023-09-07T11:06:38;28.20;99.90
7646;DHT22;3864;48.180;14.178;2023-09-07T11:09:06;28.40;99.90
7646;DHT22;3864;48.180;14.178;2023-09-07T11:11:35;28.40;99.90
7646;DHT22;3864;48.180;14.178;2023-09-07T11:14:03;28.40;99.90
7646;DHT22;3864;48.180;14.178;2023-09-07T11:16:30;28.70;99.90
7646;DHT22;3864;48.180;14.178;2023-09-07T11:19:02;28.90;99.90
7646;DHT22;3864;48.180;14.178;2023-09-07T11:21:30;29.20;99.90
7646;DHT22;3864;48.180;14.178;2023-09-07T11:23:58;28.90;99.90
7646;DHT22;3864;48.180;14.178;2023-09-07T11:26:25;29.10;99.90
7646;DHT22;3864;48.180;14.178;2023-09-07T11:28:52;29.40;99.90
7646;DHT22;3864;48.180;14.178;2023-09-07T11:31:21;29.50;99.90
7646;DHT22;3864;48.180;14.178;2023-09-07T11:33:48;29.40;99.90
7646;DHT22;3864;48.180;14.178;2023-09-07T11:36:17;29.50;99.90
7646;DHT22;3864;48.180;14.178;2023-09-07T11:38:48;29.30;99.90
7646;DHT22;3864;48.180;14.178;2023-09-07T11:41:15;29.40;99.90
7646;DHT22;3864;48.180;14.178;2023-09-07T11:43:42;29.50;99.90
7646;DHT22;3864;48.180;14.178;2023-09-07T11:46:11;29.60;99.90
7646;DHT22;3864;48.180;14.178;2023-09-07T11:48:38;29.70;99.90
7646;DHT22;3864;48.180;14.178;2023-09-07T11:51:05;29.60;99.90
7646;DHT22;3864;48.180;14.178;2023-09-07T11:53:34;29.70;99.90
7646;DHT22;3864;48.180;14.178;2023-09-07T11:56:01;29.80;99.90
7646;DHT22;3864;48.180;14.178;2023-09-07T11:58:28;29.80;99.90
7646;DHT22;3864;48.180;14.178;2023-09-07T12:00:55;29.60;99.90
7646;DHT22;3864;48.180;14.178;2023-09-07T12:03:22;29.50;99.90
7646;DHT22;3864;48.180;14.178;2023-09-07T12:05:49;29.60;99.90
7646;DHT22;3864;48.180;14.178;2023-09-07T12:08:16;30.10;99.90
7646;DHT22;3864;48.180;14.178;2023-09-07T12:10:45;30.10;99.90
7646;DHT22;3864;48.180;14.178;2023-09-07T12:13:12;30.10;99.90
7646;DHT22;3864;48.180;14.178;2023-09-07T12:15:39;30.30;99.90
7646;DHT22;3864;48.180;14.178;2023-09-07T12:18:06;29.90;99.90
7646;DHT22;3864;48.180;14.178;2023-09-07T12:20:33;30.00;99.90
7646;DHT22;3864;48.180;14.178;2023-09-07T12:23:02;29.90;99.90
7646;DHT22;3864;48.180;14.178;2023-09-07T12:25:30;30.20;99.90
7646;DHT22;3864;48.180;14.178;2023-09-07T12:27:59;30.10;99.90
7646;DHT22;3864;48.180;14.178;2023-09-07T12:30:26;30.10;99.90
7646;DHT22;3864;48.180;14.178;2023-09-07T12:32:54;30.00;99.90
7646;DHT22;3864;48.180;14.178;2023-09-07T12:35:21;30.00;99.90
7646;DHT22;3864;48.180;14.178;2023-09-07T12:37:48;30.20;99.90
7646;DHT22;3864;48.180;14.178;2023-09-07T12:40:15;30.10;99.90
7646;DHT22;3864;48.180;14.178;2023-09-07T12:42:44;30.40;99.90
7646;DHT22;3864;48.180;14.178;2023-09-07T12:45:13;30.00;99.90
7646;DHT22;3864;48.180;14.178;2023-09-07T12:47:40;30.30;99.90
7646;DHT22;3864;48.180;14.178;2023-09-07T12:50:08;30.50;99.90
7646;DHT22;3864;48.180;14.178;2023-09-07T12:52:35;30.50;99.90
7646;DHT22;3864;48.180;14.178;2023-09-07T12:55:03;30.40;99.90
7646;DHT22;3864;48.180;14.178;2023-09-07T12:57:31;30.30;99.90
7646;DHT22;3864;48.180;14.178;2023-09-07T12:59:58;30.20;99.90
7646;DHT22;3864;48.180;14.178;2023-09-07T13:02:26;30.40;99.90
7646;DHT22;3864;48.180;14.178;2023-09-07T13:04:54;30.60;99.90
7646;DHT22;3864;48.180;14.178;2023-09-07T13:07:21;30.50;99.90
7646;DHT22;3864;48.180;14.178;2023-09-07T13:09:48;30.60;99.90
7646;DHT22;3864;48.180;14.178;2023-09-07T13:12:15;30.60;99.90
7646;DHT22;3864;48.180;14.178;2023-09-07T13:14:42;30.70;99.90
7646;DHT22;3864;48.180;14.178;2023-09-07T13:17:12;30.60;99.90
7646;DHT22;3864;48.180;14.178;2023-09-07T13:19:41;30.80;99.90
7646;DHT22;3864;48.180;14.178;2023-09-07T13:22:10;30.80;99.90
7646;DHT22;3864;48.180;14.178;2023-09-07T13:24:38;30.60;99.90
7646;DHT22;3864;48.180;14.178;2023-09-07T13:27:05;30.70;99.90
7646;DHT22;3864;48.180;14.178;2023-09-07T13:29:34;30.50;99.90
7646;DHT22;3864;48.180;14.178;2023-09-07T13:32:01;30.50;99.90
7646;DHT22;3864;48.180;14.178;2023-09-07T13:34:28;30.80;99.90
7646;DHT22;3864;48.180;14.178;2023-09-07T13:36:57;30.70;99.90
7646;DHT22;3864;48.180;14.178;2023-09-07T13:39:24;30.00;99.90
7646;DHT22;3864;48.180;14.178;2023-09-07T13:41:52;30.10;99.90
7646;DHT22;3864;48.180;14.178;2023-09-07T13:44:19;30.20;99.90
7646;DHT22;3864;48.180;14.178;2023-09-07T13:46:47;29.90;99.90
7646;DHT22;3864;48.180;14.178;2023-09-07T13:49:14;29.80;99.90
7646;DHT22;3864;48.180;14.178;2023-09-07T13:51:42;29.30;99.90
7646;DHT22;3864;48.180;14.178;2023-09-07T13:54:11;28.80;99.90
7646;DHT22;3864;48.180;14.178;2023-09-07T13:56:38;28.30;99.90
7646;DHT22;3864;48.180;14.178;2023-09-07T13:59:05;28.00;99.90
7646;DHT22;3864;48.180;14.178;2023-09-07T14:01:32;27.70;99.90
7646;DHT22;3864;48.180;14.178;2023-09-07T14:03:59;27.40;99.90
7646;DHT22;3864;48.180;14.178;2023-09-07T14:06:27;27.10;99.90
7646;DHT22;3864;48.180;14.178;2023-09-07T14:08:54;27.00;99.90
7646;DHT22;3864;48.180;14.178;2023-09-07T14:11:22;26.80;99.90
7646;DHT22;3864;48.180;14.178;2023-09-07T14:13:49;26.70;99.90
7646;DHT22;3864;48.180;14.178;2023-09-07T14:16:17;26.60;99.90
7646;DHT22;3864;48.180;14.178;2023-09-07T14:18:45;26.80;99.90
7646;DHT22;3864;48.180;14.178;2023-09-07T14:21:14;26.60;99.90
7646;DHT22;3864;48.180;14.178;2023-09-07T14:23:41;26.50;99.90
7646;DHT22;3864;48.180;14.178;2023-09-07T14:26:09;26.30;99.90
7646;DHT22;3864;48.180;14.178;2023-09-07T14:28:38;26.20;99.90
7646;DHT22;3864;48.180;14.178;2023-09-07T14:31:05;26.00;99.90
7646;DHT22;3864;48.180;14.178;2023-09-07T14:33:33;26.00;99.90
7646;DHT22;3864;48.180;14.178;2023-09-07T14:36:04;26.20;99.90
7646;DHT22;3864;48.180;14.178;2023-09-07T14:38:31;26.00;99.90
7646;DHT22;3864;48.180;14.178;2023-09-07T14:41:00;25.90;99.90
7646;DHT22;3864;48.180;14.178;2023-09-07T14:43:27;25.80;99.90
7646;DHT22;3864;48.180;14.178;2023-09-07T14:45:56;25.70;99.90
7646;DHT22;3864;48.180;14.178;2023-09-07T14:48:23;25.70;99.90
7646;DHT22;3864;48.180;14.178;2023-09-07T14:50:50;25.80;99.90
7646;DHT22;3864;48.180;14.178;2023-09-07T14:53:18;25.80;99.90
7646;DHT22;3864;48.180;14.178;2023-09-07T14:55:45;25.80;99.90
7646;DHT22;3864;48.180;14.178;2023-09-07T14:58:12;25.80;99.90
7646;DHT22;3864;48.180;14.178;2023-09-07T15:00:39;25.90;99.90
7646;DHT22;3864;48.180;14.178;2023-09-07T15:03:07;26.00;99.90
7646;DHT22;3864;48.180;14.178;2023-09-07T15:05:35;26.40;99.90
7646;DHT22;3864;48.180;14.178;2023-09-07T15:08:02;26.90;99.90
7646;DHT22;3864;48.180;14.178;2023-09-07T15:10:30;27.20;99.90
7646;DHT22;3864;48.180;14.178;2023-09-07T15:12:59;27.50;99.90
7646;DHT22;3864;48.180;14.178;2023-09-07T15:15:28;27.70;99.90
7646;DHT22;3864;48.180;14.178;2023-09-07T15:18:00;27.90;99.90
7646;DHT22;3864;48.180;14.178;2023-09-07T15:20:29;28.20;99.90
7646;DHT22;3864;48.180;14.178;2023-09-07T15:22:57;28.40;99.90
7646;DHT22;3864;48.180;14.178;2023-09-07T15:25:24;28.60;99.90
7646;DHT22;3864;48.180;14.178;2023-09-07T15:27:51;28.60;99.90
7646;DHT22;3864;48.180;14.178;2023-09-07T15:30:19;28.60;99.90
7646;DHT22;3864;48.180;14.178;2023-09-07T15:32:47;28.50;99.90
7646;DHT22;3864;48.180;14.178;2023-09-07T15:35:14;28.70;99.90
7646;DHT22;3864;48.180;14.178;2023-09-07T15:37:42;28.70;99.90
7646;DHT22;3864;48.180;14.178;2023-09-07T15:40:11;28.70;99.90
7646;DHT22;3864;48.180;14.178;2023-09-07T15:42:39;28.90;99.90
7646;DHT22;3864;48.180;14.178;2023-09-07T15:45:06;28.90;99.90
7646;DHT22;3864;48.180;14.178;2023-09-07T15:47:33;28.80;99.90
7646;DHT22;3864;48.180;14.178;2023-09-07T15:50:01;28.80;99.90